createdAt,value
2018-12-07T00:02:26.516Z,15.07
2018-12-07T00:04:54.121Z,16.60
2018-12-07T00:07:22.142Z,13.97
2018-12-07T00:09:49.768Z,12.30
2018-12-07T00:12:17.336Z,12.60
2018-12-07T00:14:44.924Z,12.07
2018-12-07T00:17:12.493Z,14.00
2018-12-07T00:19:40.043Z,12.17
2018-12-07T00:22:08.080Z,13.60
2018-12-07T00:24:35.636Z,18.90
2018-12-07T00:27:03.194Z,15.30
2018-12-07T00:29:30.788Z,17.37
2018-12-07T00:31:58.342Z,16.53
2018-12-07T00:34:26.476Z,12.97
2018-12-07T00:36:54.759Z,15.23
2018-12-07T00:39:22.308Z,15.43
2018-12-07T00:41:49.864Z,14.50
2018-12-07T00:44:17.441Z,19.03
2018-12-07T00:46:44.993Z,17.30
2018-12-07T00:49:12.632Z,17.63
2018-12-07T00:51:40.633Z,17.83
2018-12-07T00:54:08.180Z,20.00
2018-12-07T00:56:35.732Z,21.10
2018-12-07T00:59:03.285Z,14.67
2018-12-07T01:01:30.836Z,18.17
2018-12-07T01:03:58.395Z,15.20
2018-12-07T01:06:26.194Z,16.90
2018-12-07T01:08:53.764Z,13.63
2018-12-07T01:11:22.260Z,16.37
2018-12-07T01:13:49.824Z,17.40
2018-12-07T01:16:17.882Z,17.63
2018-12-07T01:18:46.047Z,13.47
2018-12-07T01:21:13.609Z,13.10
2018-12-07T01:23:41.191Z,12.80
2018-12-07T01:26:08.747Z,12.77
2018-12-07T01:28:36.804Z,15.87
2018-12-07T01:31:04.359Z,8.03
2018-12-07T01:33:32.007Z,12.13
2018-12-07T01:36:00.095Z,9.83
2018-12-07T01:38:27.667Z,10.10
2018-12-07T01:40:59.137Z,6.77
2018-12-07T01:43:26.700Z,11.57
2018-12-07T01:45:54.256Z,8.83
2018-12-07T01:48:21.829Z,10.23
2018-12-07T01:50:49.405Z,7.93
2018-12-07T01:53:16.977Z,10.30
2018-12-07T01:55:44.544Z,11.03
2018-12-07T01:58:12.369Z,9.50
2018-12-07T02:00:40.550Z,10.93
2018-12-07T02:03:08.109Z,11.47
2018-12-07T02:05:35.663Z,10.17
2018-12-07T02:08:03.228Z,8.83
2018-12-07T02:10:30.792Z,9.40
2018-12-07T02:12:58.388Z,13.40
2018-12-07T02:15:25.943Z,9.87
2018-12-07T02:17:53.523Z,6.70
2018-12-07T02:20:21.645Z,9.47
2018-12-07T02:22:49.210Z,9.77
2018-12-07T02:25:16.765Z,8.20
2018-12-07T02:27:51.107Z,7.73
2018-12-07T02:30:18.671Z,10.97
2018-12-07T02:32:46.234Z,7.00
2018-12-07T02:35:13.791Z,8.03
2018-12-07T02:37:41.361Z,14.37
2018-12-07T02:40:09.065Z,10.20
2018-12-07T02:42:37.109Z,10.10
2018-12-07T02:45:04.836Z,12.87
2018-12-07T02:47:32.391Z,6.67
2018-12-07T02:49:59.943Z,8.47
2018-12-07T02:52:27.840Z,7.43
2018-12-07T02:54:55.405Z,11.37
2018-12-07T02:57:23.026Z,11.87
2018-12-07T02:59:50.617Z,8.40
2018-12-07T03:02:18.175Z,7.37
2018-12-07T03:04:45.737Z,7.57
2018-12-07T03:07:13.432Z,6.00
2018-12-07T03:09:40.983Z,7.40
2018-12-07T03:12:08.555Z,6.93
2018-12-07T03:14:36.107Z,7.40
2018-12-07T03:17:03.651Z,5.40
2018-12-07T03:19:31.200Z,3.90
2018-12-07T03:21:58.754Z,4.07
2018-12-07T03:24:26.301Z,5.10
2018-12-07T03:26:53.848Z,4.80
2018-12-07T03:29:21.402Z,7.23
2018-12-07T03:31:48.968Z,3.43
2018-12-07T03:34:16.524Z,3.67
2018-12-07T03:36:44.081Z,2.87
2018-12-07T03:39:11.809Z,3.43
2018-12-07T03:41:39.363Z,3.47
2018-12-07T03:44:07.540Z,6.30
2018-12-07T03:46:35.104Z,4.33
2018-12-07T03:49:02.665Z,5.37
2018-12-07T03:51:31.288Z,5.93
2018-12-07T03:53:59.299Z,2.30
2018-12-07T03:56:26.854Z,4.97
2018-12-07T03:58:54.397Z,5.23
2018-12-07T04:01:21.970Z,5.33
2018-12-07T04:03:49.644Z,4.53
2018-12-07T04:06:17.192Z,9.93
2018-12-07T04:08:44.736Z,9.63
2018-12-07T04:11:12.296Z,10.77
2018-12-07T04:13:39.858Z,13.83
2018-12-07T04:16:07.413Z,11.07
2018-12-07T04:18:34.981Z,12.93
2018-12-07T04:21:02.533Z,9.50
2018-12-07T04:23:32.386Z,11.00
2018-12-07T04:25:59.940Z,11.60
2018-12-07T04:28:27.491Z,10.47
2018-12-07T04:30:55.550Z,9.20
2018-12-07T04:33:23.117Z,7.30
2018-12-07T04:35:50.708Z,10.57
2018-12-07T04:38:18.477Z,9.37
2018-12-07T04:40:46.029Z,8.80
2018-12-07T04:43:13.604Z,7.13
2018-12-07T04:45:41.151Z,9.10
2018-12-07T04:48:08.735Z,10.07
2018-12-07T04:50:36.298Z,9.80
2018-12-07T04:53:03.854Z,9.63
2018-12-07T04:55:31.410Z,7.93
2018-12-07T04:57:58.971Z,12.33
2018-12-07T05:00:26.530Z,10.00
2018-12-07T05:02:54.102Z,11.27
2018-12-07T05:05:21.666Z,8.57
2018-12-07T05:07:49.216Z,9.73
2018-12-07T05:10:16.771Z,9.43
2018-12-07T05:12:44.358Z,11.10
2018-12-07T05:15:12.764Z,10.50
2018-12-07T05:17:40.503Z,10.50
2018-12-07T05:20:08.060Z,8.97
2018-12-07T05:22:35.620Z,13.13
2018-12-07T05:25:03.266Z,10.67
2018-12-07T05:27:30.828Z,13.90
2018-12-07T05:29:58.384Z,14.97
2018-12-07T05:32:26.044Z,11.47
2018-12-07T05:34:53.638Z,10.37
2018-12-07T05:37:21.187Z,9.27
2018-12-07T05:39:48.741Z,9.57
2018-12-07T05:42:16.289Z,11.00
2018-12-07T05:44:43.848Z,13.20
2018-12-07T05:47:13.360Z,11.57
2018-12-07T05:49:40.924Z,10.07
2018-12-07T05:52:08.498Z,11.80
2018-12-07T05:54:36.056Z,12.60
2018-12-07T05:57:04.074Z,10.10
2018-12-07T05:59:31.651Z,9.47
2018-12-07T06:01:59.212Z,11.10
2018-12-07T06:04:26.763Z,14.03
2018-12-07T06:06:54.331Z,10.90
2018-12-07T06:09:22.284Z,11.07
2018-12-07T06:11:49.844Z,13.13
2018-12-07T06:14:17.401Z,15.43
2018-12-07T06:16:44.952Z,13.00
2018-12-07T06:19:12.510Z,13.60
2018-12-07T06:21:40.060Z,14.87
2018-12-07T06:24:07.963Z,14.97
2018-12-07T06:26:35.519Z,16.60
2018-12-07T06:29:03.080Z,16.13
2018-12-07T06:31:31.380Z,13.57
2018-12-07T06:33:58.948Z,14.80
2018-12-07T06:36:26.520Z,14.00
2018-12-07T06:38:54.106Z,12.17
2018-12-07T06:41:21.666Z,12.73
2018-12-07T06:43:49.224Z,14.17
2018-12-07T06:46:16.784Z,15.50
2018-12-07T06:48:47.900Z,14.90
2018-12-07T06:51:15.468Z,13.33
2018-12-07T06:53:43.354Z,14.47
2018-12-07T06:56:10.915Z,16.27
2018-12-07T06:58:38.474Z,13.77
2018-12-07T07:01:06.561Z,16.70
2018-12-07T07:03:34.137Z,15.13
2018-12-07T07:06:01.692Z,13.70
2018-12-07T07:08:29.308Z,14.17
2018-12-07T07:10:56.872Z,13.57
2018-12-07T07:13:24.424Z,17.00
2018-12-07T07:15:52.090Z,15.27
2018-12-07T07:18:21.329Z,14.90
2018-12-07T07:20:49.304Z,18.77
2018-12-07T07:23:16.864Z,15.40
2018-12-07T07:25:44.662Z,20.20
2018-12-07T07:28:13.004Z,17.83
2018-12-07T07:30:40.761Z,20.80
2018-12-07T07:33:08.305Z,20.43
2018-12-07T07:35:35.865Z,18.43
2018-12-07T07:38:03.437Z,17.47
2018-12-07T07:40:31.000Z,19.37
2018-12-07T07:42:58.558Z,18.27
2018-12-07T07:45:26.152Z,15.47
2018-12-07T07:47:54.764Z,16.00
2018-12-07T07:50:22.323Z,16.40
2018-12-07T07:52:49.883Z,15.93
2018-12-07T07:55:17.443Z,17.60
2018-12-07T07:57:46.664Z,16.57
2018-12-07T08:00:14.230Z,20.37
2018-12-07T08:02:41.797Z,18.50
2018-12-07T08:05:10.153Z,17.40
2018-12-07T08:07:37.713Z,17.60
2018-12-07T08:10:05.278Z,17.23
2018-12-07T08:12:33.793Z,20.83
2018-12-07T08:15:01.512Z,19.03
2018-12-07T08:17:29.100Z,21.17
2018-12-07T08:19:56.665Z,20.50
2018-12-07T08:22:24.238Z,22.50
2018-12-07T08:24:52.532Z,21.63
2018-12-07T08:27:20.093Z,19.20
2018-12-07T08:29:47.669Z,21.70
2018-12-07T08:32:15.248Z,19.63
2018-12-07T08:34:42.889Z,19.57
2018-12-07T08:37:10.456Z,20.93
2018-12-07T08:39:38.019Z,22.77
2018-12-07T08:42:06.968Z,20.40
2018-12-07T08:44:34.757Z,20.90
2018-12-07T08:47:02.355Z,22.57
2018-12-07T08:49:36.268Z,22.07
2018-12-07T08:52:03.827Z,23.13
2018-12-07T08:54:31.905Z,20.13
2018-12-07T08:56:59.517Z,21.60
2018-12-07T08:59:27.224Z,19.70
2018-12-07T09:01:54.786Z,19.47
2018-12-07T09:04:22.358Z,22.80
2018-12-07T09:06:58.070Z,19.63
2018-12-07T09:09:31.670Z,17.97
2018-12-07T09:12:03.735Z,21.83
2018-12-07T09:14:36.103Z,23.60
2018-12-07T09:17:07.871Z,23.43
2018-12-07T09:19:37.284Z,20.67
2018-12-07T09:22:04.858Z,18.97
2018-12-07T09:24:32.702Z,17.97
2018-12-07T09:27:00.271Z,15.17
2018-12-07T09:29:27.836Z,15.50
2018-12-07T09:31:55.396Z,14.10
2018-12-07T09:34:22.958Z,14.90
2018-12-07T09:36:50.517Z,15.80
2018-12-07T09:39:18.077Z,17.17
2018-12-07T09:41:45.655Z,17.77
2018-12-07T09:44:13.622Z,15.83
2018-12-07T09:46:41.178Z,13.77
2018-12-07T09:49:08.741Z,13.93
2018-12-07T09:51:36.306Z,15.67
2018-12-07T09:54:03.894Z,14.83
2018-12-07T09:56:31.468Z,13.30
2018-12-07T09:58:59.089Z,16.73
2018-12-07T10:01:26.660Z,13.67
2018-12-07T10:03:54.342Z,14.90
2018-12-07T10:06:21.903Z,13.93
2018-12-07T10:08:49.464Z,14.80
2018-12-07T10:11:17.020Z,12.23
2018-12-07T10:13:44.576Z,20.93
2018-12-07T10:16:12.126Z,15.60
2018-12-07T10:18:39.676Z,14.13
2018-12-07T10:21:07.993Z,13.17
2018-12-07T10:23:35.554Z,12.57
2018-12-07T10:26:03.478Z,12.17
2018-12-07T10:28:31.799Z,11.17
2018-12-07T10:31:00.244Z,10.67
2018-12-07T10:33:27.893Z,9.27
2018-12-07T10:35:55.451Z,19.67
2018-12-07T10:38:23.578Z,11.20
2018-12-07T10:40:52.103Z,9.63
2018-12-07T10:43:19.673Z,11.27
2018-12-07T10:45:47.995Z,10.73
2018-12-07T10:48:15.568Z,9.47
2018-12-07T10:50:49.023Z,11.30
2018-12-07T10:53:16.584Z,11.23
2018-12-07T10:55:44.146Z,10.73
2018-12-07T10:58:11.754Z,10.53
2018-12-07T11:00:44.974Z,9.97
2018-12-07T11:03:18.343Z,12.57
2018-12-07T11:09:00.491Z,9.73
2018-12-07T11:11:34.513Z,10.47
2018-12-07T11:14:07.745Z,8.83
2018-12-07T11:16:40.974Z,11.67
2018-12-07T11:19:14.707Z,10.10
2018-12-07T11:21:47.936Z,12.40
2018-12-07T11:24:21.162Z,11.53
2018-12-07T11:27:11.537Z,12.40
2018-12-07T11:29:44.943Z,11.70
2018-12-07T11:32:16.476Z,12.53
2018-12-07T11:34:46.478Z,8.50
2018-12-07T11:37:15.191Z,12.20
2018-12-07T11:39:43.311Z,10.83
2018-12-07T11:42:10.882Z,8.53
2018-12-07T11:44:38.468Z,6.77
2018-12-07T11:47:06.020Z,5.70
2018-12-07T11:49:34.604Z,5.33
2018-12-07T11:52:02.164Z,10.27
2018-12-07T11:54:29.723Z,6.53
2018-12-07T11:56:57.283Z,5.33
2018-12-07T11:59:24.839Z,3.10
2018-12-07T12:01:52.388Z,4.23
2018-12-07T12:04:20.810Z,11.00
2018-12-07T12:06:48.364Z,5.20
2018-12-07T12:09:15.911Z,4.97
2018-12-07T12:11:43.469Z,6.33
2018-12-07T12:14:11.020Z,5.77
2018-12-07T12:16:38.580Z,3.33
2018-12-07T12:19:08.003Z,5.83
2018-12-07T12:21:35.559Z,4.33
2018-12-07T12:24:03.115Z,8.20
2018-12-07T12:26:30.673Z,5.97
2018-12-07T12:28:58.229Z,8.07
2018-12-07T12:31:25.773Z,4.13
2018-12-07T12:33:53.321Z,6.07
2018-12-07T12:36:20.874Z,6.53
2018-12-07T12:38:48.429Z,5.87
2018-12-07T12:41:15.985Z,3.00
2018-12-07T12:43:43.544Z,4.20
2018-12-07T12:46:11.112Z,7.10
2018-12-07T12:48:38.660Z,6.73
2018-12-07T12:51:07.093Z,6.00
2018-12-07T12:53:35.584Z,3.83
2018-12-07T12:56:03.134Z,7.87
2018-12-07T12:58:30.676Z,6.70
2018-12-07T13:00:58.226Z,4.13
2018-12-07T13:03:25.772Z,5.03
2018-12-07T13:05:53.318Z,5.37
2018-12-07T13:08:21.299Z,3.30
2018-12-07T13:10:48.848Z,4.13
2018-12-07T13:13:16.392Z,5.20
2018-12-07T13:15:43.965Z,4.87
2018-12-07T13:18:11.518Z,5.03
2018-12-07T13:20:39.368Z,6.03
2018-12-07T13:23:06.931Z,6.37
2018-12-07T13:25:34.492Z,4.93
2018-12-07T13:28:02.079Z,4.20
2018-12-07T13:30:29.756Z,6.47
2018-12-07T13:32:57.306Z,4.33
2018-12-07T13:35:24.861Z,4.60
2018-12-07T13:37:52.428Z,4.13
2018-12-07T13:40:20.070Z,6.77
2018-12-07T13:42:47.671Z,5.10
2018-12-07T13:45:15.421Z,4.30
2018-12-07T13:47:43.837Z,5.00
2018-12-07T13:53:15.055Z,3.90
2018-12-07T13:55:42.900Z,4.03
2018-12-07T13:58:10.582Z,5.30
2018-12-07T14:00:38.228Z,4.97
2018-12-07T14:03:06.292Z,6.87
2018-12-07T14:05:34.122Z,4.87
2018-12-07T14:08:01.799Z,4.03
2018-12-07T14:10:29.415Z,3.57
2018-12-07T14:12:57.284Z,7.57
2018-12-07T14:15:25.115Z,6.83
2018-12-07T14:17:52.800Z,7.63
2018-12-07T14:20:22.267Z,7.73
2018-12-07T14:22:49.885Z,8.63
2018-12-07T14:25:17.595Z,7.97
2018-12-07T14:27:45.196Z,9.40
2018-12-07T14:30:13.461Z,7.07
2018-12-07T14:32:41.309Z,5.27
2018-12-07T14:35:08.930Z,6.30
2018-12-07T14:37:36.651Z,8.60
2018-12-07T14:40:05.402Z,7.17
2018-12-07T14:42:33.058Z,9.10
2018-12-07T14:45:00.711Z,11.07
2018-12-07T14:47:28.403Z,8.33
2018-12-07T14:49:56.082Z,7.97
2018-12-07T14:52:23.841Z,7.47
2018-12-07T14:54:52.479Z,6.87
2018-12-07T14:57:20.128Z,10.60
2018-12-07T14:59:47.842Z,13.13
2018-12-07T15:02:16.069Z,19.90
2018-12-07T15:04:43.779Z,14.33
2018-12-07T15:07:18.241Z,22.97
2018-12-07T15:09:51.693Z,22.50
2018-12-07T15:12:27.554Z,21.30
2018-12-07T15:14:59.851Z,21.13
2018-12-07T15:17:37.154Z,15.37
2018-12-07T15:20:04.930Z,27.17
2018-12-07T15:22:32.546Z,26.60
2018-12-07T15:25:00.233Z,21.17
2018-12-07T15:27:27.894Z,27.37
2018-12-07T15:29:55.578Z,29.10
2018-12-07T15:32:23.256Z,15.80
2018-12-07T15:34:50.837Z,21.80
2018-12-07T15:37:18.761Z,15.10
2018-12-07T15:39:46.443Z,13.77
2018-12-07T15:42:14.282Z,17.33
2018-12-07T15:44:41.898Z,17.47
2018-12-07T15:47:09.520Z,21.17
2018-12-07T15:49:39.269Z,20.43
2018-12-07T15:52:06.924Z,16.20
2018-12-07T15:54:34.649Z,27.23
2018-12-07T15:57:03.217Z,21.80
2018-12-07T15:59:34.446Z,12.80
2018-12-07T16:02:00.923Z,16.90
2018-12-07T16:04:28.657Z,22.23
2018-12-07T16:06:56.333Z,16.00
2018-12-07T16:09:24.135Z,14.93
2018-12-07T16:11:51.732Z,13.23
2018-12-07T16:14:20.271Z,13.83
2018-12-07T16:16:48.019Z,25.53
2018-12-07T16:19:16.030Z,17.33
2018-12-07T16:21:43.782Z,24.20
2018-12-07T16:24:11.680Z,17.83
2018-12-07T16:26:39.722Z,24.07
2018-12-07T16:29:08.363Z,22.57
2018-12-07T16:31:36.208Z,20.93
2018-12-07T16:34:04.275Z,11.10
2018-12-07T16:36:32.085Z,15.37
2018-12-07T16:38:59.895Z,22.10
2018-12-07T16:41:27.660Z,12.53
2018-12-07T16:43:55.264Z,17.63
2018-12-07T16:46:23.062Z,15.60
2018-12-07T16:48:51.783Z,12.57
2018-12-07T16:51:20.128Z,14.93
2018-12-07T16:53:47.821Z,16.03
2018-12-07T16:56:15.611Z,11.63
2018-12-07T16:58:44.218Z,10.90
2018-12-07T17:01:12.636Z,14.93
2018-12-07T17:03:40.771Z,7.70
2018-12-07T17:06:09.106Z,15.23
2018-12-07T17:08:36.913Z,15.30
2018-12-07T17:11:04.512Z,16.70
2018-12-07T17:13:32.383Z,15.87
2018-12-07T17:16:00.212Z,12.40
2018-12-07T17:18:27.918Z,14.63
2018-12-07T17:20:55.652Z,13.80
2018-12-07T17:23:23.361Z,13.27
2018-12-07T17:25:51.316Z,15.67
2018-12-07T17:28:18.926Z,16.23
2018-12-07T17:30:46.488Z,15.27
2018-12-07T17:33:14.257Z,20.57
2018-12-07T17:35:42.576Z,16.13
2018-12-07T17:38:10.848Z,18.30
2018-12-07T17:40:39.024Z,11.90
2018-12-07T17:43:06.657Z,15.27
2018-12-07T17:45:34.217Z,15.07
2018-12-07T17:48:01.909Z,18.50
2018-12-07T17:50:29.776Z,12.50
2018-12-07T17:52:58.472Z,23.43
2018-12-07T17:55:26.105Z,13.10
2018-12-07T17:57:53.962Z,18.23
2018-12-07T18:00:21.753Z,19.73
2018-12-07T18:02:49.416Z,24.17
2018-12-07T18:05:16.994Z,13.67
2018-12-07T18:07:44.554Z,23.03
2018-12-07T18:10:12.136Z,17.50
2018-12-07T18:12:40.636Z,18.37
2018-12-07T18:15:08.212Z,20.20
2018-12-07T18:17:36.736Z,25.93
2018-12-07T18:20:05.257Z,15.13
2018-12-07T18:22:33.294Z,21.20
2018-12-07T18:25:01.555Z,20.97
2018-12-07T18:27:29.337Z,20.67
2018-12-07T18:29:57.207Z,19.07
2018-12-07T18:32:24.848Z,23.10
2018-12-07T18:34:52.492Z,18.43
2018-12-07T18:37:20.096Z,19.63
2018-12-07T18:39:47.957Z,20.27
2018-12-07T18:42:15.970Z,22.17
2018-12-07T18:44:43.736Z,20.03
2018-12-07T18:47:11.407Z,23.70
2018-12-07T18:49:39.730Z,19.67
2018-12-07T18:52:07.284Z,14.33
2018-12-07T18:54:34.926Z,23.27
2018-12-07T18:57:02.528Z,23.27
2018-12-07T18:59:30.300Z,19.87
2018-12-07T19:01:58.315Z,31.53
2018-12-07T19:04:26.037Z,18.27
2018-12-07T19:06:53.775Z,17.37
2018-12-07T19:09:21.452Z,18.03
2018-12-07T19:11:49.308Z,21.33
2018-12-07T19:14:17.166Z,20.33
2018-12-07T19:16:44.903Z,19.03
2018-12-07T19:19:12.860Z,15.13
2018-12-07T19:21:40.970Z,17.37
2018-12-07T19:24:08.776Z,17.07
2018-12-07T19:26:36.694Z,22.67
2018-12-07T19:29:05.423Z,20.37
2018-12-07T19:31:33.773Z,18.90
2018-12-07T19:34:01.556Z,19.43
2018-12-07T19:36:29.194Z,15.90
2018-12-07T19:38:57.356Z,19.37
2018-12-07T19:41:25.102Z,23.67
2018-12-07T19:43:52.867Z,16.23
2018-12-07T19:46:20.705Z,15.53
2018-12-07T19:48:48.347Z,14.90
2018-12-07T19:51:15.995Z,17.70
2018-12-07T19:53:43.719Z,20.07
2018-12-07T19:56:11.590Z,15.67
2018-12-07T19:58:39.329Z,23.83
2018-12-07T20:01:07.153Z,13.73
2018-12-07T20:03:34.821Z,12.67
2018-12-07T20:06:02.709Z,18.47
2018-12-07T20:08:30.826Z,12.03
2018-12-07T20:10:58.793Z,17.50
2018-12-07T20:13:26.511Z,19.73
2018-12-07T20:15:54.240Z,17.27
2018-12-07T20:18:21.959Z,14.93
2018-12-07T20:20:49.787Z,22.93
2018-12-07T20:23:17.699Z,16.47
2018-12-07T20:25:45.987Z,17.53
2018-12-07T20:28:13.812Z,25.03
2018-12-07T20:30:41.427Z,18.15
2018-12-07T20:33:08.988Z,13.07
2018-12-07T20:35:36.548Z,17.00
2018-12-07T20:38:04.510Z,17.13
2018-12-07T20:40:32.637Z,13.40
2018-12-07T20:43:00.289Z,17.07
2018-12-07T20:45:28.088Z,11.33
2018-12-07T20:47:55.821Z,20.33
2018-12-07T20:50:23.891Z,13.07
2018-12-07T20:52:51.985Z,16.57
2018-12-07T20:55:19.602Z,11.10
2018-12-07T20:57:47.532Z,14.90
2018-12-07T21:00:15.848Z,16.47
2018-12-07T21:02:43.975Z,14.13
2018-12-07T21:05:24.319Z,19.07
2018-12-07T21:07:53.939Z,14.13
2018-12-07T21:16:50.166Z,14.23
2018-12-07T21:19:18.035Z,10.90
2018-12-07T21:21:45.946Z,11.87
2018-12-07T21:24:13.877Z,14.40
2018-12-07T21:26:41.463Z,23.60
2018-12-07T21:29:09.132Z,16.10
2018-12-07T21:31:37.406Z,14.40
2018-12-07T21:34:07.178Z,13.17
2018-12-07T21:36:37.778Z,17.37
2018-12-07T21:39:08.764Z,18.80
2018-12-07T21:41:36.316Z,13.87
2018-12-07T21:44:03.914Z,19.87
2018-12-07T21:46:31.641Z,15.70
2018-12-07T21:48:59.632Z,15.70
2018-12-07T21:51:32.312Z,13.97
2018-12-07T21:54:00.182Z,17.07
2018-12-07T21:56:28.207Z,14.77
2018-12-07T21:58:55.901Z,15.87
2018-12-07T22:01:23.752Z,12.77
2018-12-07T22:03:51.675Z,9.37
2018-12-07T22:06:19.605Z,17.27
2018-12-07T22:08:48.122Z,15.53
2018-12-07T22:11:18.138Z,13.40
2018-12-07T22:13:45.801Z,12.37
2018-12-07T22:16:13.550Z,11.10
2018-12-07T22:18:41.417Z,13.20
2018-12-07T22:21:09.235Z,16.97
2018-12-07T22:23:36.868Z,14.23
2018-12-07T22:26:04.464Z,13.57
2018-12-07T22:28:32.071Z,12.97
2018-12-07T22:30:59.633Z,13.33
2018-12-07T22:33:27.268Z,12.37
2018-12-07T22:35:55.041Z,16.67
2018-12-07T22:38:22.948Z,13.60
2018-12-07T22:40:50.646Z,18.93
2018-12-07T22:43:18.658Z,19.23
2018-12-07T22:45:47.252Z,17.83
2018-12-07T22:48:15.342Z,11.03
2018-12-07T22:50:43.141Z,19.13
2018-12-07T22:53:10.695Z,12.60
2018-12-07T22:55:38.245Z,11.83
2018-12-07T22:58:06.170Z,21.80
2018-12-07T23:00:33.722Z,16.80
2018-12-07T23:03:01.278Z,16.17
2018-12-07T23:05:28.840Z,13.97
2018-12-07T23:07:56.401Z,9.40
2018-12-07T23:10:23.956Z,14.37
2018-12-07T23:12:51.520Z,14.47
2018-12-07T23:15:19.073Z,19.50
2018-12-07T23:17:46.629Z,16.73
2018-12-07T23:20:14.180Z,15.97
2018-12-07T23:22:41.735Z,16.60
2018-12-07T23:25:09.294Z,15.73
2018-12-07T23:27:36.863Z,17.60
2018-12-07T23:30:06.180Z,17.40
2018-12-07T23:32:33.738Z,23.63
2018-12-07T23:35:01.293Z,11.17
2018-12-07T23:37:28.858Z,14.83
2018-12-07T23:39:56.410Z,13.13
2018-12-07T23:42:23.969Z,10.53
2018-12-07T23:44:51.524Z,21.67
2018-12-07T23:47:19.085Z,18.00
2018-12-07T23:49:46.649Z,14.50
2018-12-07T23:52:14.208Z,10.80
2018-12-07T23:54:41.769Z,14.67
2018-12-07T23:57:09.328Z,14.90
2018-12-07T23:59:36.890Z,21.03
